TimeEST,TemperatureF,Dew PointF,Humidity,Sea Level PressureIn,VisibilityMPH,Wind Direction,Wind SpeedMPH,Gust SpeedMPH,PrecipitationIn,Events,Conditions,WindDirDegrees,DateUTC
12:54 AM,34.0,25.0,70,30.09,10.0,WNW,6.9,-,N/A,,Partly Cloudy,300,2012-12-30 05:54:00
1:54 AM,33.1,24.1,70,30.11,10.0,WNW,5.8,-,N/A,,Clear,290,2012-12-30 06:54:00
2:54 AM,30.9,23.0,72,30.13,10.0,WNW,4.6,-,N/A,,Clear,290,2012-12-30 07:54:00
3:54 AM,30.9,21.0,67,30.16,10.0,NW,3.5,-,N/A,,Clear,310,2012-12-30 08:54:00
4:54 AM,28.9,21.0,72,30.18,10.0,NW,5.8,-,N/A,,Clear,310,2012-12-30 09:54:00
5:54 AM,30.0,19.9,66,30.22,10.0,West,5.8,-,N/A,,Clear,270,2012-12-30 10:54:00
6:54 AM,25.0,19.9,81,30.27,10.0,Calm,Calm,-,N/A,,Clear,0,2012-12-30 11:54:00
7:54 AM,28.0,21.0,75,30.31,10.0,West,3.5,-,N/A,,Clear,270,2012-12-30 12:54:00
8:54 AM,33.1,21.9,64,30.34,10.0,West,5.8,-,N/A,,Clear,260,2012-12-30 13:54:00
9:54 AM,37.0,21.9,54,30.38,10.0,WSW,4.6,-,N/A,,Clear,240,2012-12-30 14:54:00
10:54 AM,39.9,21.0,47,30.40,10.0,Calm,Calm,-,N/A,,Clear,0,2012-12-30 15:54:00
11:54 AM,43.0,21.0,42,30.39,10.0,Variable,4.6,-,N/A,,Clear,0,2012-12-30 16:54:00
12:54 PM,44.1,21.0,40,30.38,10.0,NNW,6.9,-,N/A,,Clear,330,2012-12-30 17:54:00
1:54 PM,46.0,21.0,37,30.36,10.0,Variable,4.6,-,N/A,,Clear,0,2012-12-30 18:54:00
2:54 PM,46.9,19.9,34,30.36,10.0,NNW,5.8,-,N/A,,Clear,340,2012-12-30 19:54:00
3:54 PM,46.9,19.0,33,30.37,10.0,SW,4.6,-,N/A,,Clear,220,2012-12-30 20:54:00
4:54 PM,45.0,19.0,36,30.37,10.0,West,6.9,-,N/A,,Unknown,260,2012-12-30 21:54:00
5:54 PM,37.9,24.1,57,30.38,10.0,Calm,Calm,-,N/A,,Clear,0,2012-12-30 22:54:00
6:54 PM,30.9,23.0,72,30.43,10.0,WSW,5.8,-,N/A,,Clear,250,2012-12-30 23:54:00
7:54 PM,30.9,23.0,72,30.42,10.0,Calm,Calm,-,N/A,,Clear,0,2012-12-31 00:54:00
8:54 PM,28.9,23.0,78,30.43,10.0,SSW,5.8,-,N/A,,Clear,200,2012-12-31 01:54:00
9:54 PM,27.0,23.0,85,30.42,10.0,SSW,4.6,-,N/A,,Clear,210,2012-12-31 02:54:00
10:54 PM,27.0,21.9,81,30.40,10.0,Calm,Calm,-,N/A,,Clear,0,2012-12-31 03:54:00
11:54 PM,26.1,21.9,84,30.40,10.0,Calm,Calm,-,N/A,,Clear,0,2012-12-31 04:54:00